Time;durP1;ratioP1;P1;durP2;ratioP2;P2;SDS_P1;SDS_P2;PMS_P1;PMS_P2;Temp;Humidity;BMP_temperature;BMP_pressure;BME280_temperature;BME280_humidity;BME280_pressure;Samples;Min_cycle;Max_cycle;Signal;HPM_P1;HPM_P2
2023/06/27 00:03:26;;;;;;;9.70;4.10;;;;;;;19.28;73.57;99260.89;220944;1256;139369;-66
2023/06/27 00:08:32;;;;;;;5.20;4.30;;;;;;;19.15;73.65;99260.91;219244;1254;140540;-65
2023/06/27 00:13:41;;;;;;;6.40;4.10;;;;;;;19.15;74.28;99255.66;220746;1254;139815;-67
2023/06/27 00:18:50;;;;;;;5.70;4.90;;;;;;;19.15;74.51;99264.79;218751;1254;139159;-66
2023/06/27 00:23:56;;;;;;;4.80;4.40;;;;;;;19.13;74.75;99264.13;217968;1254;140543;-67
2023/06/27 00:29:00;;;;;;;4.90;4.20;;;;;;;19.13;74.97;99247.70;219204;1254;139936;-64
2023/06/27 00:34:06;;;;;;;7.50;4.70;;;;;;;19.05;75.01;99233.08;219583;1254;139666;-65
2023/06/27 00:39:12;;;;;;;5.50;5.10;;;;;;;19.00;75.19;99212.65;219239;1256;139891;-66
2023/06/27 00:44:17;;;;;;;5.70;4.90;;;;;;;18.84;75.49;99200.89;218396;1257;141009;-66
2023/06/27 00:49:22;;;;;;;5.00;4.50;;;;;;;18.73;75.97;99187.12;217908;1254;139497;-67
2023/06/27 00:54:27;;;;;;;5.20;4.70;;;;;;;18.71;76.50;99172.86;218956;1254;139639;-67
2023/06/27 00:59:32;;;;;;;6.80;5.40;;;;;;;18.71;76.78;99146.08;218610;1254;139338;-64
2023/06/27 01:04:37;;;;;;;8.40;5.20;;;;;;;18.71;77.25;99135.86;218096;1258;140163;-66
2023/06/27 01:09:57;;;;;;;6.80;4.90;;;;;;;18.74;77.42;99158.00;218395;1254;139700;-68
2023/06/27 01:15:04;;;;;;;8.00;6.50;;;;;;;18.72;77.51;99199.93;219188;1258;139287;-67
2023/06/27 01:20:12;;;;;;;8.10;7.40;;;;;;;18.73;78.05;99217.80;218090;1254;139481;-67
2023/06/27 01:25:16;;;;;;;9.40;8.00;;;;;;;18.74;78.57;99220.27;219836;1253;140440;-67
2023/06/27 01:30:21;;;;;;;8.90;8.10;;;;;;;18.74;78.91;99208.53;219567;1254;139389;-67
2023/06/27 01:35:50;;;;;;;8.00;7.20;;;;;;;18.73;79.06;99202.36;219291;1254;139424;-68
2023/06/27 01:40:58;;;;;;;7.80;7.00;;;;;;;18.70;79.10;99195.23;218223;1254;140433;-65
2023/06/27 01:46:05;;;;;;;8.50;7.60;;;;;;;18.70;79.18;99195.23;218072;1254;139623;-66
2023/06/27 01:51:10;;;;;;;9.30;7.40;;;;;;;18.70;79.19;99191.02;219240;1254;140166;-65
2023/06/27 01:56:14;;;;;;;8.90;7.80;;;;;;;18.69;79.46;99188.66;219859;1253;140282;-66
2023/06/27 02:01:20;;;;;;;11.20;7.90;;;;;;;18.66;79.51;99188.67;220726;1254;139825;-66
2023/06/27 02:06:25;;;;;;;9.80;8.80;;;;;;;18.65;79.78;99191.45;220740;1254;140445;-65
2023/06/27 02:11:29;;;;;;;11.00;8.60;;;;;;;18.64;79.85;99190.92;220154;1254;139286;-65
2023/06/27 02:16:34;;;;;;;9.60;8.30;;;;;;;18.62;80.07;99193.14;220087;1254;140281;-64
2023/06/27 02:21:39;;;;;;;10.40;8.40;;;;;;;18.62;80.34;99196.06;219411;1254;141112;-64
2023/06/27 02:26:46;;;;;;;13.40;9.70;;;;;;;18.62;80.65;99201.73;218313;1254;139619;-65
2023/06/27 02:31:51;;;;;;;10.10;9.00;;;;;;;18.64;80.84;99201.52;217918;1254;140132;-65
2023/06/27 02:36:55;;;;;;;10.30;9.30;;;;;;;18.63;81.08;99199.70;218723;1254;140448;-65
2023/06/27 02:42:00;;;;;;;16.90;11.00;;;;;;;18.62;81.20;99196.60;217961;1254;139550;-65
2023/06/27 02:47:05;;;;;;;19.90;10.80;;;;;;;18.62;81.37;99192.51;218162;1256;140115;-65
2023/06/27 02:52:11;;;;;;;11.20;10.00;;;;;;;18.62;81.44;99196.76;218032;1257;140423;-65
2023/06/27 02:57:15;;;;;;;13.60;10.10;;;;;;;18.61;81.66;99197.10;218790;1254;139691;-65
2023/06/27 03:02:21;;;;;;;11.20;9.70;;;;;;;18.58;81.67;99195.04;218123;1254;139894;-65
2023/06/27 03:07:26;;;;;;;10.40;9.00;;;;;;;18.55;81.77;99198.58;218172;1254;139752;-68
2023/06/27 03:12:31;;;;;;;8.50;7.80;;;;;;;18.51;81.77;99208.54;218170;1254;140287;-68
2023/06/27 03:17:34;;;;;;;9.60;5.70;;;;;;;18.43;80.89;99217.64;219262;1256;139606;-65
2023/06/27 03:22:39;;;;;;;6.90;5.60;;;;;;;18.28;80.20;99223.23;219080;1254;143173;-67
2023/06/27 03:27:43;;;;;;;10.30;6.00;;;;;;;18.15;79.86;99225.71;219292;1254;139583;-67
2023/06/27 03:32:48;;;;;;;5.30;4.80;;;;;;;18.07;79.89;99226.39;217914;1254;139812;-67
2023/06/27 03:37:53;;;;;;;7.00;6.20;;;;;;;18.04;80.03;99223.00;218503;1254;139828;-69
2023/06/27 03:42:58;;;;;;;7.70;4.90;;;;;;;18.03;80.12;99237.37;218958;1254;140521;-67
2023/06/27 03:48:02;;;;;;;5.90;5.30;;;;;;;17.99;80.24;99253.08;220323;1254;141967;-67
2023/06/27 03:53:07;;;;;;;9.80;8.10;;;;;;;17.93;80.38;99251.40;220243;1254;140286;-70
2023/06/27 03:58:11;;;;;;;7.20;6.50;;;;;;;17.89;80.61;99256.48;220833;1254;142029;-71
2023/06/27 04:03:17;;;;;;;9.60;7.30;;;;;;;17.92;80.53;99262.14;220968;1254;140309;-70
2023/06/27 04:08:22;;;;;;;10.70;7.90;;;;;;;17.95;80.42;99267.61;218691;1256;139839;-70
2023/06/27 04:13:27;;;;;;;9.10;6.50;;;;;;;17.95;80.18;99273.22;219107;1255;139902;-70
2023/06/27 04:18:32;;;;;;;8.50;6.40;;;;;;;17.89;79.89;99284.79;219327;1254;163241;-70
2023/06/27 04:23:36;;;;;;;7.40;6.50;;;;;;;17.83;79.63;99296.19;218755;1254;141498;-69
2023/06/27 04:28:41;;;;;;;17.20;6.50;;;;;;;17.81;79.70;99310.71;219583;1254;139350;-71
2023/06/27 04:33:47;;;;;;;8.30;5.20;;;;;;;17.83;79.36;99315.92;218281;1254;139530;-68
2023/06/27 04:38:53;;;;;;;7.00;4.50;;;;;;;17.89;79.23;99313.48;218323;1254;139985;-69
2023/06/27 04:43:59;;;;;;;8.00;5.60;;;;;;;17.90;79.02;99305.80;218329;1254;140301;-69
2023/06/27 04:49:04;;;;;;;6.50;4.20;;;;;;;17.86;78.72;99315.90;218578;1254;140490;-69
2023/06/27 04:54:11;;;;;;;5.10;4.20;;;;;;;17.79;78.64;99328.33;218297;1254;140302;-69
2023/06/27 04:59:17;;;;;;;5.70;5.00;;;;;;;17.70;78.47;99334.23;218337;1254;140106;-69
2023/06/27 05:04:22;;;;;;;4.80;3.60;;;;;;;17.63;78.42;99343.59;218683;1254;140322;-70
2023/06/27 05:09:26;;;;;;;9.40;4.80;;;;;;;17.59;78.32;99356.25;218292;1254;140093;-69
2023/06/27 05:14:31;;;;;;;6.00;4.60;;;;;;;17.58;78.26;99357.06;218604;1258;139629;-70
2023/06/27 05:19:36;;;;;;;8.30;4.40;;;;;;;17.64;78.18;99340.55;218226;1254;139527;-71
2023/06/27 05:24:40;;;;;;;6.90;4.80;;;;;;;17.73;78.23;99346.42;218247;1254;140348;-69
2023/06/27 05:29:44;;;;;;;12.00;4.30;;;;;;;17.94;78.03;99348.67;218858;1254;139262;-70
2023/06/27 05:34:49;;;;;;;5.20;4.00;;;;;;;18.28;77.52;99352.84;219063;1254;139742;-67
2023/06/27 05:39:56;;;;;;;4.70;3.80;;;;;;;18.88;76.47;99357.48;219188;1254;139464;-66
2023/06/27 05:45:03;;;;;;;12.50;4.80;;;;;;;18.81;75.81;99356.83;220210;1254;140425;-64
2023/06/27 05:50:08;;;;;;;;;;;;;;;18.69;75.55;99350.94;219899;1254;140015;-65
2023/06/27 05:55:14;;;;;;;6.20;3.20;;;;;;;18.59;75.29;99350.45;220497;1254;126169;-65
2023/06/27 06:00:20;;;;;;;7.20;3.70;;;;;;;18.71;74.95;99354.98;220263;1254;139332;-65
2023/06/27 06:05:24;;;;;;;6.40;3.80;;;;;;;19.48;74.21;99361.08;220735;1257;139631;-66
2023/06/27 06:10:29;;;;;;;6.00;3.70;;;;;;;20.02;72.87;99367.54;218778;1254;139708;-66
2023/06/27 06:15:33;;;;;;;6.70;3.50;;;;;;;21.11;72.06;99363.95;219945;1254;140271;-65
2023/06/27 06:20:44;;;;;;;4.00;2.50;;;;;;;22.91;69.97;99364.73;220078;1254;139397;-65
2023/06/27 06:25:56;;;;;;;5.70;2.80;;;;;;;24.74;66.67;99363.66;219914;1254;140477;-65
2023/06/27 06:31:01;;;;;;;3.50;2.60;;;;;;;24.80;63.60;99369.23;219563;1254;139916;-68
2023/06/27 06:36:09;;;;;;;3.70;2.50;;;;;;;26.78;61.72;99378.06;218365;1254;139807;-66
2023/06/27 06:41:13;;;;;;;2.20;2.00;;;;;;;28.96;58.30;99376.61;218151;1254;138895;-65
2023/06/27 06:46:17;;;;;;;3.70;2.10;;;;;;;29.03;55.54;99379.79;218627;1258;139566;-65
2023/06/27 06:51:23;;;;;;;5.00;2.40;;;;;;;27.68;53.24;99391.71;219022;1254;138919;-68
2023/06/27 06:56:27;;;;;;;5.20;1.90;;;;;;;27.10;52.39;99391.71;218318;1254;138640;-66
2023/06/27 07:01:34;;;;;;;3.70;1.90;;;;;;;28.35;51.42;99402.23;218219;1254;139617;-66
2023/06/27 07:06:38;;;;;;;13.20;2.10;;;;;;;29.67;49.82;99407.41;219660;1254;138972;-67
2023/06/27 07:11:43;;;;;;;2.30;1.50;;;;;;;30.81;48.03;99400.55;218406;1254;142096;-68
2023/06/27 07:16:50;;;;;;;8.50;1.80;;;;;;;31.23;46.43;99404.67;219198;1254;139382;-66
2023/06/27 07:21:57;;;;;;;6.10;1.60;;;;;;;31.50;45.06;99405.51;219858;1257;138437;-68
2023/06/27 07:27:02;;;;;;;4.10;1.40;;;;;;;31.68;43.80;99397.61;220752;1254;139533;-68
2023/06/27 07:32:09;;;;;;;4.30;1.30;;;;;;;31.05;42.64;99400.75;220794;1257;139441;-67
2023/06/27 07:37:14;;;;;;;1.50;1.30;;;;;;;30.26;42.51;99410.22;218730;1254;140620;-65
2023/06/27 07:42:18;;;;;;;2.20;1.50;;;;;;;29.93;42.71;99399.88;218062;1254;138990;-66
2023/06/27 07:47:24;;;;;;;10.20;2.00;;;;;;;29.91;43.31;99400.64;219987;1254;138571;-67
2023/06/27 07:52:30;;;;;;;1.70;1.20;;;;;;;29.51;42.98;99400.59;220842;1254;139960;-68
2023/06/27 07:57:34;;;;;;;6.80;1.90;;;;;;;28.73;41.80;99407.96;220881;1254;139825;-64
2023/06/27 08:02:39;;;;;;;5.40;1.40;;;;;;;28.20;41.69;99406.02;218531;1254;138668;-66
2023/06/27 08:07:45;;;;;;;2.50;1.70;;;;;;;27.64;41.96;99394.36;220612;1254;139595;-67
2023/06/27 08:12:50;;;;;;;4.60;1.80;;;;;;;26.80;42.22;99394.70;219434;1254;139071;-67
2023/06/27 08:18:00;;;;;;;7.70;1.50;;;;;;;26.48;43.03;99390.98;217992;1254;160941;-67
2023/06/27 08:23:09;;;;;;;2.80;1.80;;;;;;;26.53;43.49;99387.73;218430;1254;139359;-63
2023/06/27 08:28:15;;;;;;;5.50;2.20;;;;;;;26.58;43.38;99383.64;218115;1259;138454;-65
2023/06/27 08:33:19;;;;;;;2.80;1.80;;;;;;;26.54;43.43;99382.23;218562;1254;141736;-67
2023/06/27 08:38:25;;;;;;;3.90;1.70;;;;;;;26.27;42.80;99377.30;218664;1254;139006;-66
2023/06/27 08:43:30;;;;;;;3.30;1.70;;;;;;;26.03;43.34;99381.60;218148;1258;139403;-69
2023/06/27 08:48:39;;;;;;;3.70;1.70;;;;;;;25.94;43.52;99387.27;218782;1254;139153;-67
2023/06/27 08:53:47;;;;;;;3.90;1.10;;;;;;;25.39;42.87;99390.61;218008;1259;139848;-67
2023/06/27 08:59:02;;;;;;;4.30;2.10;;;;;;;24.59;42.29;99408.09;218368;1259;138725;-67
2023/06/27 09:04:07;;;;;;;2.60;1.20;;;;;;;24.38;43.09;99409.76;217945;1254;138890;-68
2023/06/27 09:09:14;;;;;;;6.30;1.90;;;;;;;24.54;43.43;99406.75;218207;1260;140984;-68
2023/06/27 09:14:19;;;;;;;4.40;1.50;;;;;;;24.76;43.13;99411.01;218405;1253;138758;-67
2023/06/27 09:19:27;;;;;;;9.60;1.90;;;;;;;24.62;42.77;99414.25;219051;1254;140120;-67
2023/06/27 09:24:32;;;;;;;4.20;1.20;;;;;;;24.81;42.72;99411.89;218144;1257;139486;-66
2023/06/27 09:29:36;;;;;;;3.90;1.70;;;;;;;24.94;42.53;99406.27;218072;1254;139054;-66
2023/06/27 09:34:43;;;;;;;3.60;1.00;;;;;;;24.97;41.78;99407.70;220338;1257;140113;-67
2023/06/27 09:39:47;;;;;;;3.90;1.50;;;;;;;24.94;41.76;99414.92;218549;1257;140048;-67
2023/06/27 09:44:51;;;;;;;4.40;2.10;;;;;;;25.10;41.72;99415.55;218617;1257;139275;-67
2023/06/27 09:49:57;;;;;;;3.50;1.60;;;;;;;24.99;40.94;99417.58;220544;1256;138907;-67
2023/06/27 09:55:02;;;;;;;5.60;1.60;;;;;;;24.63;40.61;99426.84;217997;1260;139167;-68
2023/06/27 10:00:08;;;;;;;5.60;1.90;;;;;;;24.73;40.73;99426.42;219480;1257;139906;-68
2023/06/27 10:05:13;;;;;;;3.50;1.40;;;;;;;25.12;40.97;99421.85;218728;1259;138751;-67
2023/06/27 10:10:25;;;;;;;8.90;1.60;;;;;;;25.39;41.23;99423.75;217988;1260;139484;-64
2023/06/27 10:15:31;;;;;;;3.20;1.50;;;;;;;25.10;40.27;99420.75;218839;1259;139392;-65
2023/06/27 10:20:38;;;;;;;4.20;1.60;;;;;;;24.63;40.30;99426.11;218159;1257;139703;-66
2023/06/27 10:25:45;;;;;;;6.20;1.40;;;;;;;24.65;40.37;99427.38;218413;1259;138887;-65
2023/06/27 10:30:50;;;;;;;5.50;1.90;;;;;;;24.54;40.27;99430.73;218570;1258;138831;-66
2023/06/27 10:36:05;;;;;;;7.50;1.90;;;;;;;24.36;40.56;99431.69;218189;1260;139930;-65
2023/06/27 10:41:12;;;;;;;6.90;1.70;;;;;;;24.27;40.75;99419.36;218139;1259;139828;-66
2023/06/27 10:46:26;;;;;;;16.80;3.00;;;;;;;24.04;40.73;99418.46;218793;1259;139286;-66
2023/06/27 10:51:41;;;;;;;2.60;1.60;;;;;;;23.98;40.95;99416.23;218282;1258;138907;-66
2023/06/27 10:56:59;;;;;;;3.70;1.70;;;;;;;24.26;41.62;99412.64;217989;1258;140039;-66
2023/06/27 11:02:07;;;;;;;2.30;1.40;;;;;;;24.43;41.45;99416.19;218019;1257;244315;-65
2023/06/27 11:07:21;;;;;;;10.10;2.10;;;;;;;24.18;41.25;99417.02;218952;1254;140645;-65
2023/06/27 11:12:33;;;;;;;2.30;2.10;;;;;;;23.76;41.34;99422.72;218048;1259;140033;-66
2023/06/27 11:17:40;;;;;;;12.60;2.60;;;;;;;24.13;41.95;99409.35;219119;1254;138219;-64
2023/06/27 11:22:45;;;;;;;2.50;1.70;;;;;;;24.49;41.65;99412.21;218953;1255;139709;-65
2023/06/27 11:27:56;;;;;;;2.20;2.00;;;;;;;24.56;41.22;99411.09;219716;1254;139129;-64
2023/06/27 11:33:04;;;;;;;5.90;1.90;;;;;;;24.39;40.72;99403.24;220544;1258;140303;-66
2023/06/27 11:38:11;;;;;;;3.70;1.50;;;;;;;24.64;41.29;99400.96;220840;1254;138977;-66
2023/06/27 11:43:19;;;;;;;5.60;1.70;;;;;;;24.88;40.58;99391.81;220094;1258;139188;-63
2023/06/27 11:48:24;;;;;;;4.30;1.60;;;;;;;25.03;39.94;99396.11;220061;1254;1041101;-64
2023/06/27 11:53:29;;;;;;;7.00;2.00;;;;;;;24.74;39.93;99399.34;219285;1254;139822;-66
2023/06/27 11:58:36;;;;;;;9.20;2.50;;;;;;;24.06;41.20;99412.97;219667;1254;138833;-66
2023/06/27 12:03:47;;;;;;;2.70;1.70;;;;;;;23.62;42.46;99422.27;219152;1254;141132;-65
2023/06/27 12:08:54;;;;;;;6.20;2.10;;;;;;;23.50;42.95;99406.14;219607;1255;139465;-62
2023/06/27 12:14:00;;;;;;;5.90;2.80;;;;;;;23.77;43.11;99418.10;218074;1254;138933;-66
2023/06/27 12:19:08;;;;;;;2.20;2.00;;;;;;;23.73;42.93;99423.48;218796;1254;141600;-63
2023/06/27 12:24:13;;;;;;;6.70;1.80;;;;;;;24.05;42.76;99418.52;218151;1255;138805;-64
2023/06/27 12:29:18;;;;;;;;;;;;;;;23.77;41.71;99418.48;218939;1256;139700;-65
2023/06/27 12:34:24;;;;;;;4.90;1.50;;;;;;;23.51;41.55;99414.20;218696;1257;125935;-65
2023/06/27 12:39:30;;;;;;;2.40;0.90;;;;;;;23.75;41.52;99405.27;218132;1254;139435;-65
2023/06/27 12:44:35;;;;;;;1.80;1.20;;;;;;;23.40;40.79;99415.91;218638;1254;139938;-65
2023/06/27 12:49:42;;;;;;;2.40;1.40;;;;;;;22.73;40.96;99417.25;218111;1254;139306;-66
2023/06/27 12:54:47;;;;;;;2.90;1.20;;;;;;;22.23;41.53;99411.97;219172;1254;139682;-63
2023/06/27 12:59:51;;;;;;;2.40;1.30;;;;;;;22.36;42.37;99400.59;218626;1254;138935;-67
2023/06/27 13:04:55;;;;;;;1.50;1.40;;;;;;;22.87;43.18;99388.69;218652;1254;139043;-63
2023/06/27 13:09:59;;;;;;;10.10;2.30;;;;;;;23.19;43.06;99381.95;218495;1254;139173;-64
2023/06/27 13:15:08;;;;;;;1.70;1.30;;;;;;;23.07;42.84;99377.88;218263;1254;139553;-63
2023/06/27 13:20:15;;;;;;;9.40;2.20;;;;;;;23.18;43.56;99384.46;218757;1254;139061;-65
2023/06/27 13:25:20;;;;;;;;;;;;;;;23.44;43.17;99381.39;218745;1254;139886;-65
2023/06/27 13:30:25;;;;;;;2.00;1.10;;;;;;;23.61;41.44;99382.23;221109;1254;125610;-67
2023/06/27 13:35:29;;;;;;;1.90;1.20;;;;;;;23.62;40.17;99378.94;220755;1254;139401;-66
2023/06/27 13:40:36;;;;;;;7.10;1.20;;;;;;;23.30;39.65;99384.17;220743;1254;139279;-63
2023/06/27 13:45:53;;;;;;;5.00;1.30;;;;;;;23.28;39.73;99376.92;218455;1254;140057;-66
2023/06/27 13:50:59;;;;;;;1.30;1.30;;;;;;;23.32;39.42;99372.90;219893;1254;139963;-64
2023/06/27 13:56:04;;;;;;;1.00;1.00;;;;;;;23.35;39.44;99374.20;219596;1254;139479;-64
2023/06/27 14:01:08;;;;;;;8.70;1.50;;;;;;;23.31;39.60;99366.55;217753;1255;139238;-65
2023/06/27 14:06:14;;;;;;;3.40;1.60;;;;;;;23.28;39.91;99360.77;219595;1254;138984;-67
2023/06/27 14:11:19;;;;;;;2.50;1.30;;;;;;;23.35;39.96;99355.39;219293;1254;140994;-65
2023/06/27 14:16:26;;;;;;;3.60;2.00;;;;;;;23.34;40.31;99354.34;219263;1254;140036;-65
2023/06/27 14:21:36;;;;;;;2.60;1.80;;;;;;;23.37;40.59;99355.56;218651;1254;139199;-66
2023/06/27 14:26:41;;;;;;;6.80;1.40;;;;;;;23.46;40.37;99347.27;217951;1254;138700;-67
2023/06/27 14:31:48;;;;;;;3.70;1.60;;;;;;;23.41;39.70;99353.77;219429;1254;141147;-67
2023/06/27 14:36:55;;;;;;;4.10;2.10;;;;;;;22.91;39.51;99360.41;218476;1254;139329;-67
2023/06/27 14:42:00;;;;;;;1.90;1.50;;;;;;;22.57;39.94;99356.80;219551;1254;138873;-65
2023/06/27 14:47:06;;;;;;;3.60;1.30;;;;;;;22.40;39.78;99352.74;218001;1257;139195;-64
2023/06/27 14:52:11;;;;;;;2.30;1.60;;;;;;;22.45;39.60;99349.65;218636;1254;138587;-67
2023/06/27 14:57:22;;;;;;;4.30;1.30;;;;;;;22.79;39.54;99344.78;218172;1254;139012;-67
2023/06/27 15:02:26;;;;;;;6.40;1.90;;;;;;;22.99;39.51;99336.98;218755;1254;139602;-69
2023/06/27 15:07:31;;;;;;;2.50;1.60;;;;;;;22.99;39.42;99323.25;218878;1254;139191;-71
2023/06/27 15:12:36;;;;;;;4.70;1.70;;;;;;;22.95;39.57;99323.70;218319;1254;139223;-70
2023/06/27 15:17:40;;;;;;;3.30;1.40;;;;;;;22.76;39.65;99313.85;219112;1254;139744;-69
2023/06/27 15:22:45;;;;;;;2.30;1.40;;;;;;;22.38;40.06;99322.79;218348;1254;140020;-67
2023/06/27 15:27:48;;;;;;;3.70;1.60;;;;;;;22.06;40.51;99326.81;219461;1254;138731;-67
2023/06/27 15:32:52;;;;;;;6.90;1.50;;;;;;;21.78;40.76;99337.77;220821;1254;139415;-67
2023/06/27 15:37:57;;;;;;;5.70;1.70;;;;;;;21.57;41.44;99339.83;219290;1254;150981;-66
2023/06/27 15:43:01;;;;;;;6.70;1.60;;;;;;;21.46;41.52;99341.46;220600;1254;139987;-68
2023/06/27 15:48:07;;;;;;;4.00;1.80;;;;;;;21.32;41.60;99344.14;218803;1254;139843;-67
2023/06/27 15:53:12;;;;;;;4.60;2.00;;;;;;;21.35;41.62;99340.11;218059;1256;138955;-65
2023/06/27 15:58:18;;;;;;;1.80;1.70;;;;;;;21.43;41.48;99334.85;218867;1254;139082;-64
2023/06/27 16:03:23;;;;;;;1.80;1.00;;;;;;;21.61;41.58;99330.02;218268;1254;139729;-65
2023/06/27 16:08:29;;;;;;;30.90;4.40;;;;;;;21.65;41.44;99326.67;219224;1254;139108;-65
2023/06/27 16:13:38;;;;;;;2.90;1.80;;;;;;;21.70;41.49;99323.45;217907;1254;139980;-66
2023/06/27 16:18:43;;;;;;;0.90;0.90;;;;;;;21.64;41.37;99321.48;218890;1254;139230;-68
2023/06/27 16:23:49;;;;;;;3.70;1.10;;;;;;;21.41;41.53;99325.60;218347;1257;138885;-66
2023/06/27 16:28:57;;;;;;;3.30;1.30;;;;;;;21.28;41.55;99322.99;218124;1254;140050;-66
2023/06/27 16:34:04;;;;;;;2.90;0.90;;;;;;;21.37;41.29;99324.27;218586;1254;140002;-67
2023/06/27 16:39:10;;;;;;;1.40;0.90;;;;;;;21.45;40.95;99320.65;218015;1256;138439;-66
2023/06/27 16:44:16;;;;;;;5.30;1.60;;;;;;;21.42;40.75;99322.34;218643;1254;139269;-66
2023/06/27 16:49:22;;;;;;;1.20;0.60;;;;;;;21.22;40.65;99319.58;218886;1254;140053;-66
2023/06/27 16:54:27;;;;;;;2.60;1.30;;;;;;;21.10;40.73;99318.11;218032;1254;139516;-66
2023/06/27 16:59:35;;;;;;;2.00;0.90;;;;;;;20.83;40.81;99326.66;218698;1254;138910;-62
2023/06/27 17:04:39;;;;;;;3.90;1.50;;;;;;;20.53;41.27;99324.95;217885;1254;139811;-68
2023/06/27 17:09:46;;;;;;;2.50;1.30;;;;;;;20.35;41.45;99326.58;220542;1254;139463;-66
2023/06/27 17:14:59;;;;;;;2.10;1.50;;;;;;;20.19;41.78;99332.86;220556;1254;139368;-66
2023/06/27 17:20:09;;;;;;;3.60;2.00;;;;;;;20.16;42.43;99344.27;220456;1254;140713;-65
2023/06/27 17:25:15;;;;;;;2.10;1.00;;;;;;;20.12;43.06;99347.55;219772;1254;139567;-66
2023/06/27 17:30:20;;;;;;;5.50;1.30;;;;;;;19.95;43.65;99354.28;220714;1254;139194;-64
2023/06/27 17:35:26;;;;;;;7.50;2.00;;;;;;;19.65;44.21;99367.28;218026;1258;138964;-65
2023/06/27 17:40:31;;;;;;;2.10;1.40;;;;;;;19.38;45.02;99372.19;220821;1254;138758;-65
2023/06/27 17:45:35;;;;;;;1.50;1.10;;;;;;;19.12;45.74;99376.21;220133;1254;139652;-63
2023/06/27 17:50:40;;;;;;;2.40;1.40;;;;;;;18.87;46.45;99382.38;217968;1254;139168;-68
2023/06/27 17:55:45;;;;;;;1.50;1.40;;;;;;;18.71;47.08;99385.39;218752;1254;139554;-67
2023/06/27 18:00:52;;;;;;;2.30;1.40;;;;;;;18.59;47.46;99388.13;217947;1254;138915;-68
2023/06/27 18:05:57;;;;;;;1.40;1.20;;;;;;;18.45;47.98;99383.69;217959;1259;140404;-68
2023/06/27 18:11:01;;;;;;;1.30;1.00;;;;;;;18.35;48.09;99383.86;218503;1255;141030;-68
2023/06/27 18:16:07;;;;;;;;;;;;;;;18.24;48.54;99380.42;217904;1259;138874;-66
2023/06/27 18:21:12;;;;;;;4.70;1.10;;;;;;;18.09;48.70;99383.73;218844;1256;125599;-65
2023/06/27 18:26:19;;;;;;;6.10;1.10;;;;;;;17.97;48.61;99391.46;218098;1254;143449;-66
2023/06/27 18:31:25;;;;;;;1.30;1.00;;;;;;;17.88;48.46;99390.45;218420;1254;140084;-68
2023/06/27 18:36:37;;;;;;;1.70;0.90;;;;;;;17.74;48.27;99388.36;218087;1256;139342;-67
2023/06/27 18:41:46;;;;;;;11.50;1.30;;;;;;;17.61;48.48;99387.60;217837;1254;140249;-68
2023/06/27 18:46:52;;;;;;;3.10;1.00;;;;;;;17.50;48.37;99387.08;218529;1254;139471;-68
2023/06/27 18:51:58;;;;;;;3.70;1.10;;;;;;;17.41;48.54;99388.65;218544;1254;141314;-68
2023/06/27 18:57:12;;;;;;;1.50;0.80;;;;;;;17.27;48.72;99393.98;218550;1254;139030;-66
2023/06/27 19:02:18;;;;;;;2.30;0.90;;;;;;;17.16;49.11;99393.35;218121;1254;140879;-66
2023/06/27 19:07:24;;;;;;;0.60;0.60;;;;;;;17.05;49.21;99403.71;220720;1254;139873;-67
2023/06/27 19:12:29;;;;;;;5.20;1.10;;;;;;;16.94;49.27;99406.28;220398;1254;140034;-67
2023/06/27 19:17:40;;;;;;;3.20;0.90;;;;;;;16.83;49.57;99400.58;219299;1254;139584;-65
2023/06/27 19:22:44;;;;;;;0.50;0.50;;;;;;;16.74;49.96;99406.70;220412;1254;139460;-65
2023/06/27 19:27:49;;;;;;;1.70;1.20;;;;;;;16.65;50.25;99408.16;220766;1254;139463;-64
2023/06/27 19:32:59;;;;;;;2.60;1.50;;;;;;;16.53;50.31;99409.69;219216;1254;140039;-65
2023/06/27 19:38:03;;;;;;;3.40;1.00;;;;;;;16.39;50.57;99416.37;220706;1254;139592;-70
2023/06/27 19:43:08;;;;;;;2.00;1.10;;;;;;;16.25;50.77;99420.44;219588;1256;140267;-69
2023/06/27 19:48:14;;;;;;;1.00;0.90;;;;;;;16.14;51.04;99422.15;220558;1253;139493;-68
2023/06/27 19:53:20;;;;;;;1.40;1.10;;;;;;;16.01;51.50;99420.44;218009;1254;139231;-65
2023/06/27 19:58:28;;;;;;;2.50;1.00;;;;;;;15.93;51.76;99433.38;220011;1255;140083;-64
2023/06/27 20:03:33;;;;;;;1.20;0.90;;;;;;;15.83;51.96;99438.45;219025;1254;139678;-63
2023/06/27 20:08:38;;;;;;;4.40;1.00;;;;;;;15.73;52.40;99444.94;218353;1254;139345;-63
2023/06/27 20:13:44;;;;;;;1.80;1.50;;;;;;;15.67;52.65;99454.52;218864;1257;140396;-63
2023/06/27 20:18:48;;;;;;;2.60;1.50;;;;;;;15.58;52.96;99452.89;217887;1258;140475;-66
2023/06/27 20:23:52;;;;;;;2.10;1.30;;;;;;;15.51;53.23;99455.04;218353;1256;138552;-65
2023/06/27 20:28:56;;;;;;;2.20;1.60;;;;;;;15.43;53.58;99453.50;218761;1254;139594;-65
2023/06/27 20:34:01;;;;;;;0.70;0.70;;;;;;;15.32;53.78;99449.55;219170;1254;139140;-68
2023/06/27 20:39:05;;;;;;;1.30;1.00;;;;;;;15.23;54.34;99450.83;218539;1254;139296;-62
2023/06/27 20:44:13;;;;;;;1.00;1.00;;;;;;;15.12;54.75;99449.54;218039;1254;139071;-63
2023/06/27 20:49:21;;;;;;;1.00;1.00;;;;;;;14.98;55.13;99439.69;219423;1254;139381;-63
2023/06/27 20:54:26;;;;;;;1.30;0.90;;;;;;;14.85;55.66;99439.87;219064;1254;139371;-63
2023/06/27 20:59:31;;;;;;;4.70;1.40;;;;;;;14.74;56.15;99437.77;218048;1254;139386;-64
2023/06/27 21:04:39;;;;;;;0.80;0.70;;;;;;;14.66;56.63;99447.27;219272;1254;140774;-66
2023/06/27 21:09:44;;;;;;;;;;;;;;;14.53;57.04;99438.79;218041;1254;159636;-68
2023/06/27 21:14:49;;;;;;;1.70;1.40;;;;;;;14.39;57.44;99436.08;221171;1254;125642;-65
2023/06/27 21:19:53;;;;;;;4.30;1.30;;;;;;;14.32;57.92;99434.80;220742;1254;139044;-66
2023/06/27 21:24:58;;;;;;;1.30;1.20;;;;;;;14.24;58.31;99436.48;220804;1254;141786;-67
2023/06/27 21:30:07;;;;;;;1.70;1.30;;;;;;;14.21;58.66;99435.73;218467;1254;140043;-67
2023/06/27 21:35:12;;;;;;;1.60;1.30;;;;;;;14.12;59.22;99433.02;219640;1254;139007;-68
2023/06/27 21:40:17;;;;;;;4.50;1.40;;;;;;;14.08;59.75;99431.34;219115;1254;138981;-69
2023/06/27 21:45:23;;;;;;;3.70;1.90;;;;;;;14.06;60.05;99432.27;218546;1256;139128;-67
2023/06/27 21:50:29;;;;;;;2.20;1.50;;;;;;;14.04;60.45;99435.70;218501;1254;139539;-70
2023/06/27 21:55:34;;;;;;;1.70;1.60;;;;;;;13.98;60.76;99441.42;218511;1254;140230;-69
2023/06/27 22:00:39;;;;;;;1.30;1.20;;;;;;;13.92;61.10;99448.05;218454;1254;140434;-69
2023/06/27 22:05:44;;;;;;;2.40;1.60;;;;;;;13.82;61.65;99448.59;218652;1255;140594;-69
2023/06/27 22:10:48;;;;;;;2.70;1.40;;;;;;;13.72;61.93;99449.70;218109;1259;140877;-66
2023/06/27 22:15:52;;;;;;;1.80;1.70;;;;;;;13.62;62.20;99448.47;218493;1256;141274;-68
2023/06/27 22:20:57;;;;;;;2.40;1.50;;;;;;;13.53;62.52;99441.66;218041;1254;140369;-67
2023/06/27 22:26:01;;;;;;;2.20;1.80;;;;;;;13.43;63.06;99442.55;218213;1254;140485;-67
2023/06/27 22:31:06;;;;;;;1.80;1.70;;;;;;;13.39;63.36;99443.48;218162;1254;140626;-65
2023/06/27 22:36:12;;;;;;;4.10;2.00;;;;;;;13.35;63.85;99443.52;218575;1254;139357;-68
2023/06/27 22:41:20;;;;;;;3.30;2.00;;;;;;;13.29;64.07;99443.52;218668;1255;141109;-66
2023/06/27 22:46:25;;;;;;;2.60;1.80;;;;;;;13.26;64.42;99439.55;218131;1254;140026;-66
2023/06/27 22:51:31;;;;;;;1.60;1.50;;;;;;;13.20;64.58;99442.94;218604;1257;139794;-67
2023/06/27 22:56:35;;;;;;;3.00;1.70;;;;;;;13.12;64.60;99443.20;219635;1254;139618;-67
2023/06/27 23:01:39;;;;;;;1.50;1.40;;;;;;;13.09;64.98;99443.02;219766;1254;141755;-68
2023/06/27 23:06:43;;;;;;;1.40;1.30;;;;;;;13.04;65.23;99438.81;220709;1254;140531;-67
2023/06/27 23:11:48;;;;;;;3.70;2.10;;;;;;;13.00;65.45;99436.27;219418;1253;139968;-67
2023/06/27 23:16:51;;;;;;;3.20;1.90;;;;;;;13.00;65.89;99433.21;220872;1254;140877;-68
2023/06/27 23:22:09;;;;;;;2.70;1.90;;;;;;;12.99;66.35;99434.98;219398;1254;141705;-67
2023/06/27 23:27:15;;;;;;;2.50;2.20;;;;;;;13.01;66.69;99430.29;219593;1254;139503;-68